createdAt,value
2017-09-12T00:00:38.270Z,13.00
2017-09-12T00:03:05.866Z,10.40
2017-09-12T00:05:33.489Z,11.20
2017-09-12T00:08:01.878Z,11.83
2017-09-12T00:10:29.438Z,15.33
2017-09-12T00:12:57.054Z,13.70
2017-09-12T00:15:24.626Z,10.03
2017-09-12T00:17:52.230Z,12.10
2017-09-12T00:20:19.834Z,11.63
2017-09-12T00:22:47.398Z,15.40
2017-09-12T00:25:15.066Z,11.47
2017-09-12T00:27:42.655Z,7.03
2017-09-12T00:30:10.278Z,7.80
2017-09-12T00:32:37.869Z,8.83
2017-09-12T00:35:05.446Z,15.87
2017-09-12T00:37:33.044Z,8.63
2017-09-12T00:40:00.602Z,10.27
2017-09-12T00:42:28.203Z,16.10
2017-09-12T00:44:56.542Z,14.03
2017-09-12T00:47:24.598Z,9.50
2017-09-12T00:49:52.187Z,8.43
2017-09-12T00:52:19.775Z,14.90
2017-09-12T00:54:47.394Z,5.80
2017-09-12T00:57:14.959Z,9.83
2017-09-12T00:59:42.579Z,13.67
2017-09-12T01:02:10.146Z,15.90
2017-09-12T01:04:37.998Z,7.73
2017-09-12T01:07:05.597Z,14.60
2017-09-12T01:09:33.158Z,14.40
2017-09-12T01:12:00.737Z,9.40
2017-09-12T01:14:29.074Z,10.73
2017-09-12T01:16:56.690Z,15.73
2017-09-12T01:19:25.101Z,15.90
2017-09-12T01:21:52.960Z,12.10
2017-09-12T01:24:20.519Z,12.63
2017-09-12T01:26:48.198Z,7.63
2017-09-12T01:29:15.782Z,12.50
2017-09-12T01:31:43.357Z,15.73
2017-09-12T01:34:11.757Z,5.77
2017-09-12T01:36:39.321Z,12.40
2017-09-12T01:39:07.255Z,19.20
2017-09-12T01:41:34.853Z,12.63
2017-09-12T01:44:02.445Z,11.50
2017-09-12T01:46:30.061Z,11.63
2017-09-12T01:48:57.678Z,11.37
2017-09-12T01:51:25.273Z,15.27
2017-09-12T01:53:53.609Z,20.77
2017-09-12T01:56:33.122Z,15.13
2017-09-12T01:59:00.715Z,6.70
2017-09-12T02:01:28.318Z,4.80
2017-09-12T02:03:55.928Z,10.13
2017-09-12T02:06:23.511Z,10.10
2017-09-12T02:08:51.118Z,10.93
2017-09-12T02:11:18.730Z,9.10
2017-09-12T02:13:46.637Z,11.23
2017-09-12T02:16:14.228Z,7.03
2017-09-12T02:18:41.789Z,6.80
2017-09-12T02:21:09.377Z,9.43
2017-09-12T02:23:36.970Z,5.63
2017-09-12T02:26:04.578Z,15.60
2017-09-12T02:28:32.238Z,10.43
2017-09-12T02:31:00.215Z,14.33
2017-09-12T02:33:27.803Z,9.40
2017-09-12T02:35:56.166Z,10.87
2017-09-12T02:38:23.782Z,16.90
2017-09-12T02:40:51.351Z,8.63
2017-09-12T02:43:18.935Z,6.30
2017-09-12T02:45:46.546Z,11.87
2017-09-12T02:48:14.442Z,9.50
2017-09-12T02:50:42.025Z,9.13
2017-09-12T02:53:09.603Z,12.00
2017-09-12T02:55:37.200Z,9.60
2017-09-12T02:58:04.785Z,11.07
2017-09-12T03:00:32.749Z,6.87
2017-09-12T03:03:00.322Z,8.90
2017-09-12T03:05:27.967Z,8.50
2017-09-12T03:07:55.590Z,13.03
2017-09-12T03:10:23.186Z,7.07
2017-09-12T03:12:50.770Z,14.27
2017-09-12T03:15:18.419Z,9.37
2017-09-12T03:17:46.280Z,9.57
2017-09-12T03:20:13.846Z,7.13
2017-09-12T03:22:41.425Z,11.60
2017-09-12T03:25:09.017Z,12.63
2017-09-12T03:27:36.626Z,9.57
2017-09-12T03:30:04.212Z,8.83
2017-09-12T03:32:32.563Z,7.30
2017-09-12T03:35:00.752Z,15.53
2017-09-12T03:37:28.330Z,11.33
2017-09-12T03:39:56.679Z,12.80
2017-09-12T03:42:24.270Z,11.57
2017-09-12T03:44:52.602Z,9.70
2017-09-12T03:47:20.248Z,6.00
2017-09-12T03:49:47.851Z,12.10
2017-09-12T03:52:15.793Z,7.77
2017-09-12T03:54:43.358Z,8.70
2017-09-12T03:57:10.945Z,6.23
2017-09-12T03:59:38.530Z,9.50
2017-09-12T04:02:06.125Z,11.33
2017-09-12T04:04:33.689Z,8.13
2017-09-12T04:07:01.255Z,9.97
2017-09-12T04:09:29.227Z,10.37
2017-09-12T04:11:56.956Z,7.37
2017-09-12T04:14:24.587Z,7.80
2017-09-12T04:16:52.926Z,14.30
2017-09-12T04:19:20.487Z,12.40
2017-09-12T04:21:48.094Z,14.00
2017-09-12T04:24:15.654Z,12.70
2017-09-12T04:26:43.513Z,12.90
2017-09-12T04:29:11.826Z,8.97
2017-09-12T04:31:39.400Z,8.57
2017-09-12T04:34:07.005Z,18.60
2017-09-12T04:36:35.346Z,21.83
2017-09-12T04:39:02.947Z,15.50
2017-09-12T04:41:31.286Z,8.30
2017-09-12T04:43:59.150Z,13.13
2017-09-12T04:46:26.722Z,12.07
2017-09-12T04:48:54.306Z,9.00
2017-09-12T04:51:22.663Z,16.30
2017-09-12T04:53:50.238Z,14.80
2017-09-12T04:56:18.994Z,20.70
2017-09-12T04:58:46.575Z,18.33
2017-09-12T05:01:14.996Z,12.20
2017-09-12T05:03:42.594Z,17.63
2017-09-12T05:06:10.170Z,13.30
2017-09-12T05:08:38.105Z,20.87
2017-09-12T05:11:05.703Z,21.43
2017-09-12T05:13:34.057Z,14.63
2017-09-12T05:16:01.633Z,16.47
2017-09-12T05:18:29.214Z,13.13
2017-09-12T05:20:57.860Z,14.93
2017-09-12T05:23:25.443Z,19.47
2017-09-12T05:25:53.791Z,17.10
2017-09-12T05:28:21.382Z,14.17
2017-09-12T05:30:48.971Z,17.97
2017-09-12T05:33:16.867Z,21.10
2017-09-12T05:35:44.429Z,23.50
2017-09-12T05:38:11.996Z,17.00
2017-09-12T05:40:39.594Z,18.87
2017-09-12T05:43:07.169Z,18.90
2017-09-12T05:45:34.782Z,16.20
2017-09-12T05:48:02.366Z,13.97
2017-09-12T05:50:31.002Z,17.80
2017-09-12T05:52:58.597Z,15.43
2017-09-12T05:55:26.206Z,25.53
2017-09-12T05:57:53.778Z,16.83
2017-09-12T06:00:21.326Z,16.37
2017-09-12T06:02:49.238Z,13.77
2017-09-12T06:05:16.826Z,16.33
2017-09-12T06:07:44.444Z,19.67
2017-09-12T06:10:12.075Z,13.53
2017-09-12T06:12:39.663Z,13.03
2017-09-12T06:15:07.563Z,16.80
2017-09-12T06:17:35.907Z,15.17
2017-09-12T06:20:03.483Z,17.10
2017-09-12T06:22:31.169Z,14.10
2017-09-12T06:24:59.681Z,12.43
2017-09-12T06:27:27.251Z,16.07
2017-09-12T06:29:54.851Z,14.70
2017-09-12T06:32:22.770Z,16.80
2017-09-12T06:34:50.336Z,15.47
2017-09-12T06:37:17.926Z,17.57
2017-09-12T06:39:45.524Z,11.03
2017-09-12T06:42:13.859Z,14.53
2017-09-12T06:44:41.821Z,15.60
2017-09-12T06:47:09.378Z,22.10
2017-09-12T06:49:36.957Z,24.17
2017-09-12T06:52:04.561Z,13.97
2017-09-12T06:54:32.182Z,12.07
2017-09-12T06:56:59.790Z,22.33
2017-09-12T06:59:28.175Z,19.67
2017-09-12T07:01:56.179Z,11.47
2017-09-12T07:04:23.759Z,17.37
2017-09-12T07:06:52.094Z,11.80
2017-09-12T07:09:19.691Z,12.90
2017-09-12T07:11:47.268Z,15.77
2017-09-12T07:14:15.643Z,9.87
2017-09-12T07:16:43.990Z,9.77
2017-09-12T07:19:11.610Z,8.40
2017-09-12T07:21:39.199Z,13.83
2017-09-12T07:24:07.162Z,14.13
2017-09-12T07:26:34.745Z,15.37
2017-09-12T07:29:02.338Z,12.27
2017-09-12T07:31:29.958Z,14.87
2017-09-12T07:33:57.542Z,21.00
2017-09-12T07:36:25.925Z,12.37
2017-09-12T07:38:54.283Z,11.63
2017-09-12T07:41:22.154Z,12.00
2017-09-12T07:43:49.768Z,16.37
2017-09-12T07:46:17.362Z,20.20
2017-09-12T07:48:44.980Z,16.00
2017-09-12T07:51:12.806Z,14.80
2017-09-12T07:53:41.226Z,16.90
2017-09-12T07:56:08.818Z,14.43
2017-09-12T07:58:36.899Z,9.57
2017-09-12T08:01:04.448Z,9.00
2017-09-12T08:03:32.059Z,11.27
2017-09-12T08:05:59.644Z,14.80
2017-09-12T08:08:27.238Z,10.23
2017-09-12T08:10:54.838Z,16.23
2017-09-12T08:13:22.517Z,26.13
2017-09-12T08:15:50.418Z,13.80
2017-09-12T08:18:17.986Z,7.63
2017-09-12T08:20:45.593Z,14.70
2017-09-12T08:23:13.265Z,16.33
2017-09-12T08:25:40.862Z,13.50
2017-09-12T08:28:08.433Z,13.23
2017-09-12T08:30:35.998Z,14.33
2017-09-12T08:33:04.020Z,10.80
2017-09-12T08:35:31.613Z,13.43
2017-09-12T08:37:59.186Z,10.53
2017-09-12T08:40:26.806Z,8.73
2017-09-12T08:42:54.451Z,11.93
2017-09-12T08:45:22.057Z,12.20
2017-09-12T08:47:49.644Z,12.73
2017-09-12T08:50:18.270Z,12.10
2017-09-12T08:52:45.863Z,14.00
2017-09-12T08:55:13.442Z,15.13
2017-09-12T08:57:41.823Z,8.60
2017-09-12T09:00:10.155Z,7.77
2017-09-12T09:02:37.746Z,11.97
2017-09-12T09:05:05.342Z,9.10
2017-09-12T09:07:33.268Z,11.33
2017-09-12T09:10:00.864Z,6.90
2017-09-12T09:12:28.437Z,8.43
2017-09-12T09:14:56.076Z,9.50
2017-09-12T09:17:23.655Z,12.90
2017-09-12T09:19:51.257Z,11.67
2017-09-12T09:22:18.839Z,8.10
2017-09-12T09:24:47.515Z,7.03
2017-09-12T09:27:15.127Z,9.90
2017-09-12T09:29:42.784Z,7.87
2017-09-12T09:32:10.391Z,12.23
2017-09-12T09:34:38.082Z,9.53
2017-09-12T09:37:06.437Z,10.30
2017-09-12T09:39:34.010Z,10.30
2017-09-12T09:42:02.738Z,11.37
2017-09-12T09:44:30.328Z,11.13
2017-09-12T09:46:57.911Z,11.60
2017-09-12T09:49:26.355Z,12.33
2017-09-12T09:51:53.936Z,10.77
2017-09-12T09:54:21.793Z,10.00
2017-09-12T09:56:49.391Z,10.53
2017-09-12T09:59:17.775Z,9.07
2017-09-12T10:01:45.457Z,6.80
2017-09-12T10:04:13.025Z,5.60
2017-09-12T10:06:40.611Z,8.80
2017-09-12T10:09:08.185Z,7.77
2017-09-12T10:11:36.115Z,7.27
2017-09-12T10:14:03.715Z,9.60
2017-09-12T10:16:32.046Z,5.70
2017-09-12T10:18:59.643Z,6.70
2017-09-12T10:21:27.236Z,7.47
2017-09-12T10:23:54.840Z,6.00
2017-09-12T10:26:22.413Z,8.27
2017-09-12T10:28:50.387Z,7.10
2017-09-12T10:31:17.997Z,5.20
2017-09-12T10:33:45.574Z,8.30
2017-09-12T10:36:13.207Z,9.27
2017-09-12T10:38:40.785Z,11.23
2017-09-12T10:41:08.418Z,9.03
2017-09-12T10:43:36.770Z,9.77
2017-09-12T10:46:04.647Z,4.63
2017-09-12T10:48:32.226Z,7.27
2017-09-12T10:50:59.805Z,6.60
2017-09-12T10:53:27.408Z,7.00
2017-09-12T10:55:54.996Z,6.50
2017-09-12T10:58:23.356Z,3.53
2017-09-12T11:00:50.958Z,7.13
2017-09-12T11:03:18.861Z,8.33
2017-09-12T11:05:46.499Z,6.37
2017-09-12T11:08:14.106Z,5.10
2017-09-12T11:10:41.725Z,3.63
2017-09-12T11:13:09.302Z,6.30
2017-09-12T11:15:37.704Z,5.73
2017-09-12T11:18:05.278Z,7.00
2017-09-12T11:20:33.946Z,1.90
2017-09-12T11:23:01.555Z,4.37
2017-09-12T11:25:29.261Z,5.70
2017-09-12T11:27:56.865Z,2.87
2017-09-12T11:30:24.454Z,4.27
2017-09-12T11:32:52.057Z,4.20
2017-09-12T11:35:20.458Z,5.93
2017-09-12T11:37:48.369Z,4.27
2017-09-12T11:40:15.948Z,3.37
2017-09-12T11:42:44.459Z,3.67
2017-09-12T11:45:12.818Z,3.33
2017-09-12T11:47:41.180Z,4.53
2017-09-12T11:50:09.031Z,7.40
2017-09-12T11:52:36.619Z,4.07
2017-09-12T11:55:04.572Z,3.83
2017-09-12T11:57:32.160Z,2.10
2017-09-12T12:00:00.515Z,5.77
2017-09-12T12:02:28.118Z,4.03
2017-09-12T12:04:55.692Z,3.37
2017-09-12T12:07:23.310Z,3.80
2017-09-12T12:09:51.655Z,3.93
2017-09-12T12:12:19.827Z,4.80
2017-09-12T12:14:47.411Z,3.23
2017-09-12T12:17:14.993Z,3.20
2017-09-12T12:19:43.377Z,3.90
2017-09-12T12:22:10.951Z,4.10
2017-09-12T12:24:38.573Z,5.27
2017-09-12T12:27:06.142Z,4.33
2017-09-12T12:29:34.765Z,8.33
2017-09-12T12:32:02.368Z,6.70
2017-09-12T12:34:29.974Z,9.77
2017-09-12T12:36:57.574Z,4.20
2017-09-12T12:39:25.154Z,3.37
2017-09-12T12:41:53.094Z,6.27
2017-09-12T12:44:20.680Z,7.93
2017-09-12T12:46:48.382Z,7.23
2017-09-12T12:49:15.970Z,6.80
2017-09-12T12:51:43.556Z,4.50
2017-09-12T12:54:11.229Z,3.33
2017-09-12T12:56:38.799Z,4.67
2017-09-12T12:59:07.425Z,4.93
2017-09-12T13:01:35.005Z,4.77
2017-09-12T13:04:02.596Z,5.50
2017-09-12T13:06:31.116Z,5.43
2017-09-12T13:08:58.694Z,4.77
2017-09-12T13:11:26.746Z,5.67
2017-09-12T13:13:54.361Z,8.30
2017-09-12T13:16:22.715Z,6.83
2017-09-12T13:18:50.314Z,9.07
2017-09-12T13:21:18.669Z,4.23
2017-09-12T13:23:46.229Z,7.67
2017-09-12T13:26:13.831Z,5.97
2017-09-12T13:28:41.738Z,5.60
2017-09-12T13:31:09.345Z,7.87
2017-09-12T13:33:37.694Z,3.70
2017-09-12T13:36:05.275Z,10.37
2017-09-12T13:38:33.608Z,7.10
2017-09-12T13:41:01.577Z,5.60
2017-09-12T13:43:29.146Z,7.03
2017-09-12T13:45:56.727Z,4.47
2017-09-12T13:48:24.349Z,6.00
2017-09-12T13:50:51.990Z,6.00
2017-09-12T13:53:20.010Z,5.60
2017-09-12T13:55:47.608Z,6.07
2017-09-12T13:58:15.198Z,6.10
2017-09-12T14:00:42.854Z,12.07
2017-09-12T14:03:10.449Z,9.03
2017-09-12T14:05:38.439Z,10.23
2017-09-12T14:08:06.779Z,5.53
2017-09-12T14:10:34.379Z,7.13
2017-09-12T14:13:02.766Z,5.70
2017-09-12T14:15:30.339Z,4.80
2017-09-12T14:17:57.934Z,6.30
2017-09-12T14:20:25.525Z,11.07
2017-09-12T14:22:54.178Z,9.60
2017-09-12T14:25:21.788Z,10.70
2017-09-12T14:27:49.389Z,8.47
2017-09-12T14:30:16.998Z,6.90
2017-09-12T14:32:45.359Z,5.10
2017-09-12T14:35:12.962Z,4.63
2017-09-12T14:37:40.537Z,9.10
2017-09-12T14:40:08.146Z,5.57
2017-09-12T14:42:35.760Z,11.43
2017-09-12T14:45:03.359Z,5.83
2017-09-12T14:47:31.326Z,9.53
2017-09-12T14:49:58.909Z,7.23
2017-09-12T14:52:27.266Z,6.30
2017-09-12T14:54:54.871Z,10.53
2017-09-12T14:57:22.450Z,9.70
2017-09-12T14:59:50.315Z,11.93
2017-09-12T15:02:18.648Z,8.67
2017-09-12T15:04:46.992Z,9.57
2017-09-12T15:07:14.612Z,8.80
2017-09-12T15:09:42.196Z,11.90
2017-09-12T15:12:10.088Z,6.40
2017-09-12T15:14:37.666Z,5.47
2017-09-12T15:17:06.020Z,9.37
2017-09-12T15:19:33.664Z,5.73
2017-09-12T15:22:01.259Z,10.67
2017-09-12T15:24:29.923Z,6.97
2017-09-12T15:26:57.528Z,17.40
2017-09-12T15:29:25.229Z,7.03
2017-09-12T15:31:52.834Z,7.40
2017-09-12T15:34:21.183Z,10.43
2017-09-12T15:36:48.755Z,5.47
2017-09-12T15:39:16.323Z,7.83
2017-09-12T15:41:44.984Z,8.60
2017-09-12T15:44:12.559Z,6.80
2017-09-12T15:46:40.151Z,11.07
2017-09-12T15:49:07.792Z,11.70
2017-09-12T15:51:36.159Z,11.37
2017-09-12T15:54:03.750Z,8.60
2017-09-12T15:56:31.344Z,12.73
2017-09-12T15:58:59.222Z,7.93
2017-09-12T16:01:26.819Z,10.00
2017-09-12T16:03:55.199Z,8.33
2017-09-12T16:06:23.553Z,6.27
2017-09-12T16:08:52.319Z,10.87
2017-09-12T16:11:19.956Z,11.27
2017-09-12T16:13:47.716Z,11.77
2017-09-12T16:16:15.896Z,11.87
2017-09-12T16:18:43.511Z,10.57
2017-09-12T16:21:11.863Z,9.00
2017-09-12T16:23:39.507Z,7.97
2017-09-12T16:26:07.150Z,12.13
2017-09-12T16:28:34.814Z,7.60
2017-09-12T16:31:02.451Z,6.90
2017-09-12T16:33:31.189Z,5.40
2017-09-12T16:36:06.323Z,6.73
2017-09-12T16:38:34.288Z,8.67
2017-09-12T16:41:01.896Z,6.23
2017-09-12T16:43:29.492Z,8.70
2017-09-12T16:45:57.113Z,5.10
2017-09-12T16:48:25.486Z,5.23
2017-09-12T16:50:53.858Z,5.80
2017-09-12T16:53:22.202Z,6.93
2017-09-12T16:55:50.190Z,5.83
2017-09-12T16:58:17.782Z,7.17
2017-09-12T17:00:45.391Z,13.63
2017-09-12T17:03:13.767Z,11.07
2017-09-12T17:05:41.370Z,5.50
2017-09-12T17:08:09.725Z,7.27
2017-09-12T17:10:37.311Z,7.93
2017-09-12T17:13:05.951Z,8.13
2017-09-12T17:15:33.528Z,11.30
2017-09-12T17:18:01.173Z,10.97
2017-09-12T17:20:29.549Z,6.03
2017-09-12T17:22:57.275Z,5.60
2017-09-12T17:25:24.878Z,6.97
2017-09-12T17:27:52.469Z,4.50
2017-09-12T17:30:21.223Z,5.57
2017-09-12T17:32:48.822Z,5.83
2017-09-12T17:37:42.578Z,10.43
2017-09-12T17:40:10.181Z,4.27
2017-09-12T17:42:38.930Z,6.30
2017-09-12T17:45:06.549Z,10.80
2017-09-12T17:47:34.188Z,7.43
2017-09-12T17:50:01.816Z,3.40
2017-09-12T17:52:29.493Z,8.77
2017-09-12T17:54:57.922Z,8.00
2017-09-12T17:57:25.538Z,10.03
2017-09-12T17:59:54.491Z,9.60
2017-09-12T18:02:23.213Z,10.40
2017-09-12T18:04:51.692Z,9.67
2017-09-12T18:07:20.180Z,5.30
2017-09-12T18:09:48.038Z,10.00
2017-09-12T18:12:16.844Z,13.00
2017-09-12T18:14:45.364Z,13.20
2017-09-12T18:17:13.341Z,11.70
2017-09-12T18:19:40.968Z,6.27
2017-09-12T18:22:08.654Z,4.77
2017-09-12T18:24:36.275Z,9.73
2017-09-12T18:27:04.807Z,5.70
2017-09-12T18:29:32.419Z,3.83
2017-09-12T18:32:00.245Z,8.30
2017-09-12T18:34:28.484Z,4.93
2017-09-12T18:36:56.165Z,8.43
2017-09-12T18:39:23.786Z,13.73
2017-09-12T18:41:51.541Z,6.20
2017-09-12T18:44:19.937Z,7.33
2017-09-12T18:46:47.883Z,8.50
2017-09-12T18:49:16.278Z,8.40
2017-09-12T18:51:44.151Z,8.70
2017-09-12T18:54:12.306Z,8.30
2017-09-12T18:56:40.008Z,6.10
2017-09-12T18:59:07.703Z,7.70
2017-09-12T19:01:35.300Z,8.80
2017-09-12T19:04:03.213Z,8.00
2017-09-12T19:06:30.843Z,9.63
2017-09-12T19:08:58.449Z,12.53
2017-09-12T19:11:26.356Z,10.67
2017-09-12T19:13:54.079Z,10.23
2017-09-12T19:16:22.304Z,12.10
2017-09-12T19:18:50.173Z,9.43
2017-09-12T19:21:18.330Z,8.10
2017-09-12T19:23:45.968Z,7.47
2017-09-12T19:26:14.236Z,10.60
2017-09-12T19:28:42.271Z,13.30
2017-09-12T19:31:10.006Z,9.73
2017-09-12T19:33:37.684Z,14.20
2017-09-12T19:36:05.485Z,13.80
2017-09-12T19:38:33.456Z,8.50
2017-09-12T19:41:01.311Z,13.77
2017-09-12T19:43:28.970Z,10.23
2017-09-12T19:45:56.776Z,11.50
2017-09-12T19:48:25.276Z,15.60
2017-09-12T19:50:53.847Z,13.77
2017-09-12T19:53:21.677Z,12.10
2017-09-12T19:55:49.724Z,11.53
2017-09-12T19:58:17.376Z,14.10
2017-09-12T20:00:45.877Z,12.23
2017-09-12T20:03:14.672Z,14.43
2017-09-12T20:05:43.598Z,10.60
2017-09-12T20:08:12.214Z,10.03
2017-09-12T20:10:41.834Z,13.97
2017-09-12T20:13:09.822Z,11.20
2017-09-12T20:15:38.235Z,13.60
2017-09-12T20:18:07.263Z,11.93
2017-09-12T20:20:35.060Z,21.10
2017-09-12T20:23:02.795Z,11.03
2017-09-12T20:25:30.894Z,12.00
2017-09-12T20:30:38.555Z,14.50
2017-09-12T20:33:06.200Z,21.37
2017-09-12T20:35:33.864Z,9.93
2017-09-12T20:38:01.577Z,17.93
2017-09-12T20:40:29.172Z,11.97
2017-09-12T20:42:57.643Z,14.53
2017-09-12T20:45:25.603Z,10.97
2017-09-12T20:47:53.652Z,11.43
2017-09-12T20:50:21.263Z,14.00
2017-09-12T20:52:49.614Z,9.63
2017-09-12T20:55:17.947Z,16.27
2017-09-12T20:57:45.555Z,8.20
2017-09-12T21:00:13.174Z,22.37
2017-09-12T21:02:40.803Z,10.73
2017-09-12T21:05:09.517Z,14.97
2017-09-12T21:07:37.160Z,21.47
2017-09-12T21:10:04.792Z,13.93
2017-09-12T21:12:33.150Z,15.10
2017-09-12T21:15:00.722Z,13.93
2017-09-12T21:17:28.676Z,19.73
2017-09-12T21:19:56.254Z,11.83
2017-09-12T21:22:23.846Z,16.83
2017-09-12T21:24:51.474Z,22.50
2017-09-12T21:27:19.049Z,24.93
2017-09-12T21:29:47.736Z,12.40
2017-09-12T21:32:16.110Z,18.30
2017-09-12T21:34:44.464Z,19.10
2017-09-12T21:37:12.089Z,19.53
2017-09-12T21:39:39.683Z,35.87
2017-09-12T21:42:07.302Z,24.07
2017-09-12T21:44:34.878Z,23.23
2017-09-12T21:47:02.735Z,24.77
2017-09-12T21:49:31.759Z,12.30
2017-09-12T21:51:59.501Z,14.50
2017-09-12T21:54:27.116Z,14.83
2017-09-12T21:56:55.716Z,17.97
2017-09-12T21:59:23.626Z,11.80
2017-09-12T22:01:51.225Z,16.50
2017-09-12T22:04:19.562Z,13.10
2017-09-12T22:06:47.163Z,11.60
2017-09-12T22:09:15.538Z,11.83
2017-09-12T22:11:43.898Z,12.27
2017-09-12T22:14:12.238Z,10.53
2017-09-12T22:16:40.109Z,12.83
2017-09-12T22:19:07.706Z,11.83
2017-09-12T22:21:35.296Z,15.43
2017-09-12T22:24:02.916Z,8.77
2017-09-12T22:26:30.515Z,11.20
2017-09-12T22:28:58.119Z,13.70
2017-09-12T22:31:25.739Z,13.80
2017-09-12T22:33:53.650Z,10.77
2017-09-12T22:36:21.256Z,11.43
2017-09-12T22:38:49.588Z,10.27
2017-09-12T22:41:17.419Z,17.60
2017-09-12T22:43:44.993Z,12.93
2017-09-12T22:46:12.590Z,19.23
2017-09-12T22:48:40.181Z,16.93
2017-09-12T22:51:08.180Z,17.00
2017-09-12T22:53:35.764Z,9.53
2017-09-12T22:56:03.362Z,10.23
2017-09-12T22:58:31.737Z,13.13
2017-09-12T23:01:00.098Z,19.87
2017-09-12T23:03:27.780Z,13.20
2017-09-12T23:05:56.160Z,14.43
2017-09-12T23:08:25.006Z,9.73
2017-09-12T23:10:52.590Z,6.63
2017-09-12T23:13:20.163Z,10.70
2017-09-12T23:15:48.547Z,25.90
2017-09-12T23:18:16.920Z,11.53
2017-09-12T23:20:45.319Z,14.77
2017-09-12T23:23:12.904Z,11.50
2017-09-12T23:25:40.882Z,11.57
2017-09-12T23:28:08.475Z,11.47
2017-09-12T23:30:36.923Z,11.57
2017-09-12T23:33:04.542Z,12.23
2017-09-12T23:35:32.115Z,11.87
2017-09-12T23:37:59.723Z,8.07
2017-09-12T23:40:27.307Z,12.13
2017-09-12T23:42:55.938Z,12.87
2017-09-12T23:45:23.530Z,11.70
2017-09-12T23:47:51.124Z,14.10
2017-09-12T23:50:18.734Z,19.67
2017-09-12T23:52:46.337Z,12.77
2017-09-12T23:55:14.716Z,12.03
2017-09-12T23:57:43.055Z,9.00
